createdAt,value
2018-03-30T08:30:19.417Z,36448.00
2018-03-30T08:30:48.834Z,41824.00
2018-03-30T08:31:48.845Z,40800.00
2018-03-30T08:32:48.837Z,39168.00
2018-03-30T08:33:48.860Z,37984.00
2018-03-30T08:34:48.858Z,39520.00
2018-03-30T08:36:14.931Z,41664.00
2018-03-30T08:36:49.518Z,44896.00
2018-03-30T08:37:48.863Z,45792.00
2018-03-30T08:38:48.891Z,44768.00
2018-03-30T08:39:48.872Z,45728.00
2018-03-30T08:40:48.874Z,35360.00
2018-03-30T08:41:48.961Z,32064.00
2018-03-30T08:42:49.268Z,29984.00
2018-03-30T08:43:48.868Z,39712.00
2018-03-30T08:44:48.875Z,44032.00
2018-03-30T08:45:48.900Z,41472.00
2018-03-30T08:46:48.894Z,37536.00
2018-03-30T08:49:37.692Z,31744.00
2018-03-30T08:50:24.396Z,40352.00
2018-03-30T08:51:23.536Z,44704.00
2018-03-30T08:52:32.073Z,48896.00
2018-03-30T08:53:23.548Z,44672.00
2018-03-30T08:54:23.542Z,52384.00
2018-03-30T08:55:23.582Z,52096.00
2018-03-30T08:56:23.554Z,51296.00
2018-03-30T08:57:23.558Z,48608.00
2018-03-30T08:58:25.209Z,47744.00
2018-03-30T08:59:23.599Z,43584.00
2018-03-30T09:00:23.563Z,45888.00
2018-03-30T09:01:23.795Z,45792.00
2018-03-30T09:02:23.585Z,46048.00
2018-03-30T09:03:46.192Z,45696.00
2018-03-30T09:04:23.591Z,30528.00
2018-03-30T09:05:23.595Z,27584.00
2018-03-30T09:06:23.624Z,31232.00
2018-03-30T09:07:23.599Z,30496.00
2018-03-30T09:08:37.667Z,48096.00
2018-03-30T09:09:23.926Z,52832.00
2018-03-30T09:10:23.626Z,54368.00
2018-03-30T09:11:23.630Z,49408.00
2018-03-30T09:12:23.622Z,42368.00
2018-03-30T09:13:23.710Z,47776.00
2018-03-30T09:15:03.180Z,49056.00
2018-03-30T09:15:24.058Z,48864.00
2018-03-30T09:16:23.643Z,50688.00
2018-03-30T09:17:23.676Z,52448.00
2018-03-30T09:18:23.684Z,57088.00
2018-03-30T09:22:29.690Z,62656.00
2018-03-30T09:26:31.633Z,68224.00
2018-03-30T09:27:31.130Z,66464.00
2018-03-30T09:28:42.122Z,72608.00
2018-03-30T09:29:31.137Z,74464.00
2018-03-30T09:30:31.134Z,73120.00
2018-03-30T09:31:31.151Z,74208.00
2018-03-30T09:32:31.181Z,74560.00
2018-03-30T09:33:32.051Z,73376.00
2018-03-30T09:34:31.201Z,74688.00
2018-03-30T09:35:31.204Z,80928.00
2018-03-30T09:36:31.210Z,77344.00
2018-03-30T09:37:31.256Z,76672.00
2018-03-30T09:40:08.536Z,80000.00
2018-03-30T09:41:02.945Z,77760.00
2018-03-30T09:42:02.969Z,77120.00
2018-03-30T09:43:02.946Z,69280.00
2018-03-30T09:46:13.237Z,64000.00
2018-03-30T09:46:35.107Z,65344.00
2018-03-30T09:47:35.117Z,65728.00
2018-03-30T09:51:40.154Z,77504.00
2018-03-30T09:52:38.422Z,83104.00
2018-03-30T09:54:02.570Z,79072.00
2018-03-30T09:54:38.465Z,79520.00
2018-03-30T09:55:38.494Z,81536.00
2018-03-30T09:56:38.468Z,79840.00
2018-03-30T09:57:39.105Z,75392.00
2018-03-30T09:58:38.547Z,71360.00
2018-03-30T09:59:38.523Z,67744.00
2018-03-30T10:00:38.537Z,66176.00
2018-03-30T10:01:38.532Z,62176.00
2018-03-30T10:02:38.537Z,64000.00
2018-03-30T10:05:10.698Z,61792.00
2018-03-30T10:06:10.681Z,68224.00
2018-03-30T10:07:10.670Z,69024.00
2018-03-30T10:08:10.670Z,72192.00
2018-03-30T10:09:10.739Z,64736.00
2018-03-30T10:10:10.722Z,73568.00
2018-03-30T10:11:10.700Z,71296.00
2018-03-30T10:12:10.698Z,66368.00
2018-03-30T10:13:10.728Z,63456.00
2018-03-30T10:16:05.541Z,62848.00
2018-03-30T10:17:05.487Z,62112.00
2018-03-30T10:18:05.551Z,63520.00
2018-03-30T10:19:20.893Z,67520.00
2018-03-30T10:20:05.542Z,67840.00
2018-03-30T10:21:05.543Z,63584.00
2018-03-30T10:22:05.550Z,70624.00
2018-03-30T10:23:05.555Z,68896.00
2018-03-30T10:24:09.016Z,70112.00
2018-03-30T10:25:05.583Z,70240.00
2018-03-30T10:26:05.632Z,68192.00
2018-03-30T10:27:05.610Z,68896.00
2018-03-30T10:28:05.618Z,66400.00
2018-03-30T10:29:05.618Z,73952.00
2018-03-30T10:31:46.896Z,75232.00
2018-03-30T10:32:38.475Z,73504.00
2018-03-30T10:33:38.492Z,37568.00
2018-03-30T10:36:15.265Z,36704.00
2018-03-30T10:37:15.306Z,69728.00
2018-03-30T10:38:15.274Z,71872.00
2018-03-30T10:39:26.407Z,39104.00
2018-03-30T10:40:15.298Z,74048.00
2018-03-30T10:41:15.303Z,75776.00
2018-03-30T10:42:15.318Z,48224.00
2018-03-30T10:43:16.235Z,86816.00
2018-03-30T10:44:23.293Z,92128.00
2018-03-30T10:45:15.349Z,85952.00
2018-03-30T10:46:15.376Z,40672.00
2018-03-30T10:47:15.369Z,34368.00
2018-03-30T10:48:15.398Z,61504.00
2018-03-30T10:49:17.311Z,86208.00
2018-03-30T10:50:15.407Z,84768.00
2018-03-30T10:51:15.414Z,84320.00
2018-03-30T10:52:27.769Z,81088.00
2018-03-30T10:53:15.437Z,73952.00
2018-03-30T10:57:51.802Z,31168.00
2018-03-30T10:58:46.243Z,27936.00
2018-03-30T10:59:46.331Z,28576.00
2018-03-30T11:00:46.249Z,29984.00
2018-03-30T11:01:46.274Z,33760.00
2018-03-30T11:02:46.257Z,89216.00
2018-03-30T11:03:46.691Z,99232.00
2018-03-30T11:04:51.399Z,84096.00
2018-03-30T11:05:46.833Z,85248.00
2018-03-30T11:06:46.311Z,84608.00
2018-03-30T11:07:46.306Z,90976.00
2018-03-30T11:08:46.333Z,90144.00
2018-03-30T11:09:49.463Z,94848.00
2018-03-30T11:10:46.414Z,82784.00
2018-03-30T11:11:46.374Z,78464.00
2018-03-30T11:12:46.408Z,73888.00
2018-03-30T11:13:46.379Z,87872.00
2018-03-30T11:15:07.440Z,80224.00
2018-03-30T11:15:46.408Z,82816.00
2018-03-30T11:16:46.436Z,80512.00
2018-03-30T11:17:46.436Z,81568.00
2018-03-30T11:18:46.567Z,42880.00
2018-03-30T11:19:51.942Z,83776.00
2018-03-30T11:20:46.449Z,43264.00
2018-03-30T11:21:46.480Z,40704.00
2018-03-30T11:22:46.854Z,40960.00
2018-03-30T11:23:46.508Z,67104.00
2018-03-30T11:26:48.239Z,37344.00
2018-03-30T11:27:46.392Z,40608.00
2018-03-30T11:28:46.388Z,35840.00
2018-03-30T11:29:48.316Z,30688.00
2018-03-30T11:30:46.421Z,29728.00
2018-03-30T11:31:46.439Z,32000.00
2018-03-30T11:32:46.416Z,35776.00
2018-03-30T11:33:46.467Z,36096.00
2018-03-30T11:34:47.718Z,81632.00
2018-03-30T11:35:46.473Z,42208.00
2018-03-30T11:36:46.470Z,38048.00
2018-03-30T11:37:46.455Z,42752.00
2018-03-30T11:38:47.262Z,85472.00
2018-03-30T11:39:47.241Z,87232.00
2018-03-30T11:40:54.296Z,83360.00
2018-03-30T11:41:46.515Z,33984.00
2018-03-30T11:42:46.508Z,70048.00
2018-03-30T11:43:46.535Z,84512.00
2018-03-30T11:44:46.546Z,87904.00
2018-03-30T11:45:47.313Z,63840.00
2018-03-30T11:46:46.559Z,64032.00
2018-03-30T11:47:46.613Z,44736.00
2018-03-30T11:48:46.584Z,73184.00
2018-03-30T11:49:46.591Z,91712.00
2018-03-30T11:51:07.645Z,100480.00
2018-03-30T11:51:46.628Z,105344.00
2018-03-30T11:52:46.606Z,109664.00
2018-03-30T11:53:46.615Z,35840.00
2018-03-30T11:54:46.787Z,46816.00
2018-03-30T11:55:46.644Z,34272.00
2018-03-30T11:56:46.642Z,63680.00
2018-03-30T11:57:46.682Z,102400.00
2018-03-30T11:58:49.336Z,93600.00
2018-03-30T12:01:18.750Z,99552.00
2018-03-30T12:02:18.766Z,98144.00
2018-03-30T12:03:18.774Z,99296.00
2018-03-30T12:04:18.782Z,98016.00
2018-03-30T12:05:19.621Z,100160.00
2018-03-30T12:06:18.802Z,94784.00
2018-03-30T12:07:18.817Z,100640.00
2018-03-30T12:08:18.814Z,104416.00
2018-03-30T12:09:18.858Z,93952.00
2018-03-30T12:10:43.877Z,94016.00
2018-03-30T12:11:18.872Z,97280.00
2018-03-30T12:12:18.869Z,102912.00
2018-03-30T12:13:18.909Z,100192.00
2018-03-30T12:14:18.918Z,66752.00
2018-03-30T12:15:18.926Z,94848.00
2018-03-30T12:16:38.002Z,88736.00
2018-03-30T12:17:18.935Z,81600.00
2018-03-30T12:18:18.966Z,80000.00
2018-03-30T12:19:19.237Z,87840.00
2018-03-30T12:20:19.001Z,76416.00
2018-03-30T12:21:19.650Z,76000.00
2018-03-30T12:22:19.074Z,86880.00
2018-03-30T12:23:19.043Z,90496.00
2018-03-30T12:24:19.059Z,91552.00
2018-03-30T12:25:19.058Z,87584.00
2018-03-30T12:26:37.506Z,79040.00
2018-03-30T12:27:19.115Z,82464.00
2018-03-30T12:28:19.119Z,56064.00
2018-03-30T12:29:19.586Z,38368.00
2018-03-30T12:30:19.396Z,82752.00
2018-03-30T12:31:33.454Z,28032.00
2018-03-30T12:32:19.172Z,70176.00
2018-03-30T12:33:19.176Z,49024.00
2018-03-30T12:34:30.354Z,84704.00
2018-03-30T12:35:19.192Z,81888.00
2018-03-30T12:36:40.534Z,82752.00
2018-03-30T12:37:19.236Z,81376.00
2018-03-30T12:38:19.236Z,80608.00
2018-03-30T12:39:19.259Z,73600.00
2018-03-30T12:40:19.267Z,81120.00
2018-03-30T12:41:19.318Z,81600.00
2018-03-30T12:42:19.285Z,79424.00
2018-03-30T12:43:19.311Z,84608.00
2018-03-30T12:44:19.307Z,81440.00
2018-03-30T12:45:19.318Z,82944.00
2018-03-30T12:46:19.731Z,82144.00
2018-03-30T12:47:19.349Z,79616.00
2018-03-30T12:48:19.357Z,79360.00
2018-03-30T12:49:19.362Z,79936.00
2018-03-30T12:50:20.313Z,78944.00
2018-03-30T12:51:19.463Z,80416.00
2018-03-30T12:52:19.418Z,80896.00
2018-03-30T12:53:19.432Z,89696.00
2018-03-30T12:54:19.429Z,86176.00
2018-03-30T12:55:20.584Z,89088.00
2018-03-30T12:56:25.037Z,91712.00
2018-03-30T12:57:19.977Z,93984.00
2018-03-30T12:58:19.490Z,89408.00
2018-03-30T12:59:19.503Z,80992.00
2018-03-30T13:00:19.522Z,89120.00
2018-03-30T13:01:19.523Z,86176.00
2018-03-30T13:02:38.026Z,93056.00
2018-03-30T13:03:19.781Z,93600.00
2018-03-30T13:04:19.588Z,94016.00
2018-03-30T13:05:20.458Z,91168.00
2018-03-30T13:06:19.607Z,94784.00
2018-03-30T13:07:30.510Z,95872.00
2018-03-30T13:08:19.647Z,92352.00
2018-03-30T13:09:19.676Z,95488.00
2018-03-30T13:10:19.652Z,93696.00
2018-03-30T13:11:19.656Z,93216.00
2018-03-30T13:12:25.031Z,85728.00
2018-03-30T13:13:19.680Z,77088.00
2018-03-30T13:14:19.738Z,82432.00
2018-03-30T13:15:19.719Z,77312.00
2018-03-30T13:16:19.731Z,78912.00
2018-03-30T13:17:48.597Z,21728.00
2018-03-30T13:18:19.745Z,77760.00
2018-03-30T13:19:19.779Z,72128.00
2018-03-30T13:20:19.783Z,76704.00
2018-03-30T13:21:19.781Z,78016.00
2018-03-30T13:22:21.505Z,80672.00
2018-03-30T13:23:19.842Z,79264.00
2018-03-30T13:24:19.808Z,79744.00
2018-03-30T13:25:19.923Z,78912.00
2018-03-30T13:26:20.424Z,79968.00
2018-03-30T13:29:15.656Z,24064.00
2018-03-30T13:29:53.043Z,53984.00
2018-03-30T13:30:53.055Z,65216.00
2018-03-30T13:31:53.068Z,65696.00
2018-03-30T13:34:24.749Z,66336.00
2018-03-30T13:35:24.706Z,74816.00
2018-03-30T13:36:24.744Z,71328.00
2018-03-30T13:37:24.766Z,57920.00
2018-03-30T13:38:48.255Z,45664.00
2018-03-30T13:39:24.769Z,50688.00
2018-03-30T13:40:24.775Z,72288.00
2018-03-30T13:41:24.799Z,80160.00
2018-03-30T13:42:27.874Z,32288.00
2018-03-30T13:43:24.799Z,77376.00
2018-03-30T13:44:24.840Z,70368.00
2018-03-30T13:45:24.833Z,67904.00
2018-03-30T13:46:25.215Z,51616.00
2018-03-30T13:47:24.859Z,44448.00
2018-03-30T13:48:24.917Z,36352.00
2018-03-30T13:49:24.865Z,26080.00
2018-03-30T13:50:24.876Z,22208.00
2018-03-30T13:51:24.902Z,56352.00
2018-03-30T13:54:21.192Z,82912.00
2018-03-30T13:55:20.162Z,80704.00
2018-03-30T13:56:20.185Z,71168.00
2018-03-30T13:57:20.191Z,31552.00
2018-03-30T13:58:20.245Z,52800.00
2018-03-30T13:59:20.198Z,24480.00
2018-03-30T14:00:20.194Z,43456.00
2018-03-30T14:01:20.218Z,26304.00
2018-03-30T14:02:20.236Z,28032.00
2018-03-30T14:03:42.184Z,26848.00
2018-03-30T14:04:20.249Z,23392.00
2018-03-30T14:05:20.249Z,24320.00
2018-03-30T14:06:20.261Z,26176.00
2018-03-30T14:07:20.266Z,29504.00
2018-03-30T14:08:20.691Z,48928.00
2018-03-30T14:09:20.281Z,47008.00
2018-03-30T14:10:20.313Z,35264.00
2018-03-30T14:11:20.431Z,42464.00
2018-03-30T14:12:20.283Z,40096.00
2018-03-30T14:13:21.163Z,40992.00
2018-03-30T14:14:42.199Z,40896.00
2018-03-30T14:15:20.323Z,33664.00
2018-03-30T14:16:20.318Z,37632.00
2018-03-30T14:17:20.337Z,27072.00
2018-03-30T14:18:20.335Z,25152.00
2018-03-30T14:19:22.205Z,24224.00
2018-03-30T14:20:20.350Z,30976.00
2018-03-30T14:21:20.373Z,27296.00
2018-03-30T14:22:20.350Z,31680.00
2018-03-30T14:23:49.187Z,30304.00
2018-03-30T14:24:20.379Z,32032.00
2018-03-30T14:25:20.384Z,33728.00
2018-03-30T14:26:20.381Z,23104.00
2018-03-30T14:27:20.377Z,21760.00
2018-03-30T14:28:34.678Z,21472.00
2018-03-30T14:29:20.458Z,21984.00
2018-03-30T14:30:20.413Z,21824.00
2018-03-30T14:31:20.402Z,21312.00
2018-03-30T14:32:27.583Z,21056.00
2018-03-30T14:33:31.185Z,21280.00
2018-03-30T14:34:21.884Z,24224.00
2018-03-30T14:35:42.135Z,24704.00
2018-03-30T14:36:20.850Z,23488.00
2018-03-30T14:37:20.444Z,32832.00
2018-03-30T14:38:55.684Z,34048.00
2018-03-30T14:39:20.454Z,30848.00
2018-03-30T14:40:20.451Z,26464.00
2018-03-30T14:41:20.459Z,28064.00
2018-03-30T14:42:20.944Z,30624.00
2018-03-30T14:43:20.459Z,28576.00
2018-03-30T14:44:20.528Z,29568.00
2018-03-30T14:45:20.473Z,29568.00
2018-03-30T14:46:20.472Z,28768.00
2018-03-30T14:47:20.513Z,28832.00
2018-03-30T14:48:20.504Z,26496.00
2018-03-30T14:49:21.418Z,33312.00
2018-03-30T14:50:20.524Z,35808.00
2018-03-30T14:51:20.514Z,36640.00
2018-03-30T14:52:20.526Z,34304.00
2018-03-30T14:53:21.179Z,33888.00
2018-03-30T14:56:03.764Z,28800.00
2018-03-30T14:57:02.815Z,27840.00
2018-03-30T14:58:02.828Z,26496.00
2018-03-30T14:59:05.000Z,23712.00
2018-03-30T15:00:02.970Z,23872.00
2018-03-30T15:01:02.822Z,21216.00
2018-03-30T15:02:02.823Z,20096.00
2018-03-30T15:03:02.838Z,18304.00
2018-03-30T15:04:02.841Z,18144.00
2018-03-30T15:05:42.287Z,18400.00
2018-03-30T15:06:02.896Z,18112.00
2018-03-30T15:07:03.372Z,18208.00
2018-03-30T15:08:02.844Z,18624.00
2018-03-30T15:09:02.873Z,18848.00
2018-03-30T15:10:06.927Z,20480.00
2018-03-30T15:11:02.868Z,20672.00
2018-03-30T15:12:02.890Z,21088.00
2018-03-30T15:13:03.337Z,21312.00
2018-03-30T15:14:02.895Z,20704.00
2018-03-30T15:15:08.316Z,19616.00
2018-03-30T15:19:09.288Z,18656.00
2018-03-30T15:20:03.442Z,18240.00
2018-03-30T15:21:03.437Z,17792.00
2018-03-30T15:22:03.453Z,17472.00
2018-03-30T15:23:03.440Z,17184.00
2018-03-30T15:24:03.454Z,16796.00
2018-03-30T15:25:21.805Z,16516.00
2018-03-30T15:26:03.459Z,16400.00
2018-03-30T15:27:03.453Z,16224.00
2018-03-30T15:28:03.460Z,16056.00
2018-03-30T15:29:03.480Z,16040.00
2018-03-30T15:30:24.805Z,16052.00
2018-03-30T15:31:03.484Z,16020.00
2018-03-30T15:32:03.484Z,15988.00
2018-03-30T15:33:03.487Z,15912.00
2018-03-30T15:34:03.505Z,15724.00
2018-03-30T15:35:05.268Z,15592.00
2018-03-30T15:36:03.486Z,15432.00
2018-03-30T15:37:03.515Z,15160.00
2018-03-30T15:38:03.509Z,14760.00
2018-03-30T15:39:03.521Z,14496.00
2018-03-30T15:40:25.280Z,14352.00
2018-03-30T15:41:03.516Z,14228.00
2018-03-30T15:42:03.529Z,14124.00
2018-03-30T15:43:03.520Z,14060.00
2018-03-30T15:44:03.525Z,13856.00
2018-03-30T15:45:04.268Z,13576.00
2018-03-30T15:46:03.522Z,13404.00
2018-03-30T15:47:03.635Z,13340.00
2018-03-30T15:48:03.560Z,13416.00
2018-03-30T15:49:03.547Z,13592.00
2018-03-30T15:50:03.801Z,13692.00
2018-03-30T15:51:03.546Z,13792.00
2018-03-30T15:52:03.547Z,13920.00
2018-03-30T15:53:03.554Z,13796.00
2018-03-30T15:54:03.551Z,13680.00
2018-03-30T15:55:03.629Z,13420.00
2018-03-30T15:56:03.575Z,13168.00
2018-03-30T15:57:03.571Z,12956.00
2018-03-30T15:58:03.561Z,12732.00
2018-03-30T15:59:03.588Z,12480.00
2018-03-30T16:00:03.641Z,12212.00
2018-03-30T16:01:04.378Z,11952.00
2018-03-30T16:02:03.595Z,11760.00
2018-03-30T16:03:03.584Z,11648.00
2018-03-30T16:04:03.589Z,11564.00
2018-03-30T16:05:03.794Z,11432.00
2018-03-30T16:06:03.596Z,11236.00
2018-03-30T16:07:03.811Z,10960.00
2018-03-30T16:08:03.596Z,10608.00
2018-03-30T16:09:03.601Z,10212.00
2018-03-30T16:10:11.286Z,9796.00
2018-03-30T16:11:03.614Z,9444.00
2018-03-30T16:12:04.546Z,9144.00
2018-03-30T16:13:03.605Z,8888.00
2018-03-30T16:14:03.612Z,8716.00
2018-03-30T16:15:05.283Z,8620.00
2018-03-30T16:16:03.627Z,8560.00
2018-03-30T16:17:03.629Z,8548.00
2018-03-30T16:18:03.612Z,8560.00
2018-03-30T16:19:22.791Z,8564.00
2018-03-30T16:20:21.815Z,8536.00
2018-03-30T16:21:03.650Z,8464.00
2018-03-30T16:22:03.659Z,8392.00
2018-03-30T16:23:03.662Z,8376.00
2018-03-30T16:24:03.701Z,8436.00
2018-03-30T16:25:03.733Z,8508.00
2018-03-30T16:26:03.668Z,8440.00
2018-03-30T16:27:03.663Z,8400.00
2018-03-30T16:28:03.657Z,8316.00
2018-03-30T16:29:03.668Z,8120.00
2018-03-30T16:30:03.662Z,7924.00
2018-03-30T16:31:05.353Z,7772.00
2018-03-30T16:32:03.666Z,7564.00
2018-03-30T16:33:04.564Z,7392.00
2018-03-30T16:34:03.670Z,7240.00
2018-03-30T16:35:03.666Z,7032.00
2018-03-30T16:36:21.796Z,6752.00
2018-03-30T16:37:03.679Z,6704.00
2018-03-30T16:38:03.693Z,6608.00
2018-03-30T16:39:03.666Z,6504.00
2018-03-30T16:40:03.789Z,6488.00
2018-03-30T16:41:03.705Z,6424.00
2018-03-30T16:42:08.832Z,6240.00
2018-03-30T16:43:03.711Z,5984.00
2018-03-30T16:44:03.707Z,5728.00
2018-03-30T16:45:03.716Z,5396.00
2018-03-30T16:46:03.705Z,5000.00
2018-03-30T16:47:03.748Z,4568.00
2018-03-30T16:48:03.694Z,4160.00
2018-03-30T16:49:03.768Z,3840.00
2018-03-30T16:50:03.706Z,3576.00
2018-03-30T16:51:03.703Z,3332.00
2018-03-30T16:52:11.336Z,3156.00
2018-03-30T16:53:03.720Z,3004.00
2018-03-30T16:54:03.700Z,2868.00
2018-03-30T16:55:03.728Z,2756.00
2018-03-30T16:56:03.723Z,2648.00
2018-03-30T16:57:11.338Z,2536.00
2018-03-30T16:58:03.733Z,2436.00
2018-03-30T16:59:05.293Z,2340.00
2018-03-30T17:00:03.749Z,2240.00
2018-03-30T17:01:03.734Z,2160.00
2018-03-30T17:02:04.318Z,2104.00
2018-03-30T17:03:03.982Z,2056.00
2018-03-30T17:04:03.750Z,2024.00
2018-03-30T17:05:03.736Z,2004.00
2018-03-30T17:06:03.750Z,1988.00
2018-03-30T17:15:18.960Z,1760.00
2018-03-30T17:16:18.876Z,1740.00
2018-03-30T17:17:18.896Z,1708.00
2018-03-30T17:18:24.427Z,1668.00
2018-03-30T17:19:18.882Z,1628.00
2018-03-30T17:20:18.884Z,1576.00
2018-03-30T17:21:18.881Z,1520.00
2018-03-30T17:22:40.487Z,1464.00
2018-03-30T17:23:18.874Z,1408.00
2018-03-30T17:24:18.873Z,1344.00
2018-03-30T17:25:18.879Z,1280.00
2018-03-30T17:26:18.910Z,1212.00
2018-03-30T17:27:18.876Z,1152.00
2018-03-30T17:29:53.655Z,992.00
2018-03-30T17:30:53.519Z,928.00
2018-03-30T17:31:53.530Z,860.00
2018-03-30T17:33:25.134Z,792.00
2018-03-30T17:33:53.495Z,724.00
2018-03-30T17:34:53.975Z,652.00
2018-03-30T17:35:53.496Z,588.00
2018-03-30T17:36:53.496Z,532.00
2018-03-30T17:38:04.816Z,480.00
2018-03-30T17:38:53.507Z,436.00
2018-03-30T17:39:53.506Z,396.00
2018-03-30T17:40:53.503Z,360.00
2018-03-30T17:45:09.864Z,240.00
2018-03-30T17:46:05.474Z,212.00
2018-03-30T17:47:04.850Z,192.00
2018-03-30T17:48:04.793Z,168.00
2018-03-30T17:49:04.783Z,148.00
2018-03-30T17:50:04.791Z,132.00
2018-03-30T17:51:04.791Z,112.00
2018-03-30T17:52:04.956Z,100.00
2018-03-30T17:53:04.790Z,84.00
2018-03-30T17:54:04.765Z,72.00
2018-03-30T17:55:04.771Z,64.00
2018-03-30T17:56:04.746Z,52.00
2018-03-30T17:57:04.758Z,48.00
2018-03-30T17:58:27.468Z,40.00
2018-03-30T17:59:04.748Z,32.00
2018-03-30T18:00:04.741Z,28.00
2018-03-30T18:01:04.751Z,20.00
2018-03-30T18:02:04.749Z,20.00
2018-03-30T18:03:04.916Z,16.00
2018-03-30T18:04:04.765Z,12.00
2018-03-30T18:05:04.803Z,12.00
2018-03-30T18:06:04.775Z,12.00
2018-03-30T18:07:04.821Z,4.00
2018-03-30T18:09:36.434Z,4.00
2018-03-30T18:10:36.974Z,4.00
2018-03-30T18:11:36.435Z,4.00
2018-03-30T18:12:36.833Z,4.00
2018-03-30T18:13:41.047Z,4.00
2018-03-30T18:14:37.024Z,0.00
2018-03-30T18:15:36.576Z,0.00
2018-03-30T18:16:36.413Z,0.00
2018-03-30T18:17:36.391Z,0.00
2018-03-30T18:18:36.458Z,0.00
2018-03-30T18:20:15.584Z,0.00
2018-03-30T18:20:36.369Z,0.00
2018-03-30T18:21:36.490Z,0.00
2018-03-30T18:22:36.376Z,0.00
2018-03-30T18:25:29.148Z,0.00
2018-03-30T18:26:08.041Z,0.00
2018-03-30T18:27:07.986Z,0.00
2018-03-30T18:28:07.993Z,0.00
2018-03-30T18:30:46.812Z,0.00
2018-03-30T18:31:41.121Z,0.00
2018-03-30T18:32:41.115Z,0.00
2018-03-30T18:34:03.049Z,0.00
2018-03-30T18:34:41.710Z,0.00
2018-03-30T18:35:41.115Z,0.00
2018-03-30T18:36:41.154Z,0.00
2018-03-30T18:37:41.134Z,0.00
2018-03-30T18:38:41.127Z,0.00
2018-03-30T18:46:38.870Z,0.00
2018-03-30T18:47:08.246Z,0.00
2018-03-30T18:48:08.251Z,0.00
2018-03-30T18:49:08.250Z,0.00
2018-03-30T18:50:08.278Z,0.00
2018-03-30T19:02:20.848Z,0.00
2018-03-30T19:02:59.203Z,0.00
2018-03-30T19:03:59.097Z,0.00
2018-03-30T19:04:59.104Z,0.00
2018-03-30T19:06:38.197Z,0.00
2018-03-30T19:06:59.120Z,0.00
2018-03-30T19:07:59.262Z,0.00
2018-03-30T19:08:59.061Z,0.00
2018-03-30T19:09:59.069Z,0.00
2018-03-30T19:12:59.677Z,0.00
2018-03-30T19:13:30.669Z,0.00
2018-03-30T19:14:30.669Z,0.00
2018-03-30T19:15:30.667Z,0.00
2018-03-30T19:16:49.386Z,0.00
2018-03-30T19:17:30.675Z,0.00
2018-03-30T19:18:30.662Z,0.00
2018-03-30T19:19:30.666Z,0.00
2018-03-30T19:20:30.650Z,0.00
2018-03-30T19:21:31.494Z,0.00
2018-03-30T19:22:31.315Z,0.00
2018-03-30T19:23:30.648Z,0.00
2018-03-30T19:24:30.647Z,0.00
2018-03-30T19:25:30.693Z,0.00
2018-03-30T19:26:30.680Z,0.00
2018-03-30T19:27:56.834Z,0.00
2018-03-30T19:28:30.704Z,0.00
2018-03-30T19:29:30.654Z,0.00
2018-03-30T19:30:30.647Z,0.00
2018-03-30T19:31:30.795Z,0.00
2018-03-30T19:32:30.718Z,0.00
2018-03-30T19:33:30.698Z,0.00
2018-03-30T19:34:30.695Z,0.00
2018-03-30T19:35:30.651Z,0.00
2018-03-30T19:36:30.676Z,0.00
2018-03-30T19:37:31.326Z,0.00
2018-03-30T19:38:31.498Z,0.00
2018-03-30T19:39:30.655Z,0.00
2018-03-30T19:40:30.649Z,0.00
2018-03-30T19:41:56.883Z,0.00
2018-03-30T19:42:30.649Z,0.00
2018-03-30T19:43:30.635Z,0.00
2018-03-30T19:44:30.632Z,0.00
2018-03-30T19:45:30.642Z,0.00
2018-03-30T19:46:30.664Z,0.00
2018-03-30T20:04:38.960Z,0.00
2018-03-30T20:05:20.356Z,0.00
2018-03-30T20:06:21.114Z,0.00
2018-03-30T20:07:20.389Z,0.00
2018-03-30T20:10:15.099Z,0.00
2018-03-30T20:10:52.045Z,0.00
2018-03-30T20:11:51.991Z,0.00
2018-03-30T20:12:52.049Z,0.00
2018-03-30T20:15:57.842Z,0.00
2018-03-30T20:16:23.551Z,0.00
2018-03-30T20:17:23.596Z,0.00
2018-03-30T20:20:36.561Z,0.00
2018-03-30T20:20:56.605Z,0.00
2018-03-30T20:21:56.355Z,0.00
2018-03-30T20:22:55.646Z,0.00
2018-03-30T20:23:55.707Z,0.00
2018-03-30T20:24:55.638Z,0.00
2018-03-30T20:25:55.827Z,0.00
2018-03-30T20:26:56.219Z,0.00
2018-03-30T20:27:55.641Z,0.00
2018-03-30T22:25:34.983Z,0.00
2018-03-30T22:26:16.860Z,0.00
2018-03-30T22:27:16.833Z,0.00
2018-03-30T22:28:16.837Z,0.00
2018-03-30T22:29:16.845Z,0.00
2018-03-30T22:43:49.567Z,0.00
2018-03-30T23:10:55.564Z,0.00
2018-03-30T23:11:31.456Z,0.00
2018-03-30T23:12:31.450Z,0.00
2018-03-30T23:13:31.456Z,0.00
